sensor_id;sensor_type;location;lat;lon;timestamp;pressure;altitude;pressure_sealevel;temperature;humidity
50123;BME280;36021;48.670;6.184;2023-02-28T00:00:09;99740.75;;;1.50;100.00
50123;BME280;36021;48.670;6.184;2023-02-28T00:02:39;99737.41;;;1.48;100.00
50123;BME280;36021;48.670;6.184;2023-02-28T00:05:05;99746.44;;;1.42;100.00
50123;BME280;36021;48.670;6.184;2023-02-28T00:07:31;99742.41;;;1.51;100.00
50123;BME280;36021;48.670;6.184;2023-02-28T00:09:57;99740.34;;;1.46;100.00
50123;BME280;36021;48.670;6.184;2023-02-28T00:12:23;99743.78;;;1.29;100.00
50123;BME280;36021;48.670;6.184;2023-02-28T00:14:49;99740.88;;;1.30;100.00
50123;BME280;36021;48.670;6.184;2023-02-28T00:17:14;99748.66;;;1.20;100.00
50123;BME280;36021;48.670;6.184;2023-02-28T00:19:41;99747.13;;;1.31;100.00
50123;BME280;36021;48.670;6.184;2023-02-28T00:22:07;99745.09;;;1.20;100.00
50123;BME280;36021;48.670;6.184;2023-02-28T00:24:33;99738.44;;;1.16;100.00
50123;BME280;36021;48.670;6.184;2023-02-28T00:26:58;99735.53;;;1.11;100.00
50123;BME280;36021;48.670;6.184;2023-02-28T00:29:24;99749.72;;;1.13;100.00
50123;BME280;36021;48.670;6.184;2023-02-28T00:31:50;99746.41;;;1.11;100.00
50123;BME280;36021;48.670;6.184;2023-02-28T00:34:18;99747.81;;;1.20;100.00
50123;BME280;36021;48.670;6.184;2023-02-28T00:36:44;99753.41;;;1.25;100.00
50123;BME280;36021;48.670;6.184;2023-02-28T00:39:11;99749.72;;;1.13;100.00
50123;BME280;36021;48.670;6.184;2023-02-28T00:41:38;99754.50;;;1.17;100.00
50123;BME280;36021;48.670;6.184;2023-02-28T00:44:03;99757.81;;;1.26;100.00
50123;BME280;36021;48.670;6.184;2023-02-28T00:46:31;99751.78;;;1.24;100.00
50123;BME280;36021;48.670;6.184;2023-02-28T00:48:57;99753.47;;;1.12;100.00
50123;BME280;36021;48.670;6.184;2023-02-28T00:51:22;99756.03;;;1.07;100.00
50123;BME280;36021;48.670;6.184;2023-02-28T00:53:48;99756.59;;;1.15;100.00
50123;BME280;36021;48.670;6.184;2023-02-28T00:56:15;99752.88;;;1.10;100.00
50123;BME280;36021;48.670;6.184;2023-02-28T00:58:41;99758.34;;;0.96;100.00
50123;BME280;36021;48.670;6.184;2023-02-28T01:01:07;99751.88;;;0.97;100.00
50123;BME280;36021;48.670;6.184;2023-02-28T01:03:33;99758.13;;;1.04;100.00
50123;BME280;36021;48.670;6.184;2023-02-28T01:05:59;99760.41;;;1.08;100.00
50123;BME280;36021;48.670;6.184;2023-02-28T01:08:24;99758.75;;;1.00;100.00
50123;BME280;36021;48.670;6.184;2023-02-28T01:10:51;99759.81;;;0.92;100.00
50123;BME280;36021;48.670;6.184;2023-02-28T01:13:17;99762.53;;;0.92;100.00
50123;BME280;36021;48.670;6.184;2023-02-28T01:15:53;99767.31;;;1.03;100.00
50123;BME280;36021;48.670;6.184;2023-02-28T01:18:20;99758.13;;;1.04;100.00
50123;BME280;36021;48.670;6.184;2023-02-28T01:20:46;99758.78;;;0.93;100.00
50123;BME280;36021;48.670;6.184;2023-02-28T01:23:12;99766.06;;;0.99;100.00
50123;BME280;36021;48.670;6.184;2023-02-28T01:25:38;99762.75;;;0.97;100.00
50123;BME280;36021;48.670;6.184;2023-02-28T01:28:04;99763.94;;;1.01;100.00
50123;BME280;36021;48.670;6.184;2023-02-28T01:30:31;99765.88;;;0.94;100.00
50123;BME280;36021;48.670;6.184;2023-02-28T01:32:57;99759.78;;;1.05;100.00
50123;BME280;36021;48.670;6.184;2023-02-28T01:35:25;99769.38;;;1.01;100.00
50123;BME280;36021;48.670;6.184;2023-02-28T01:37:50;99774.41;;;1.04;100.00
50123;BME280;36021;48.670;6.184;2023-02-28T01:40:17;99769.78;;;1.05;100.00
50123;BME280;36021;48.670;6.184;2023-02-28T01:42:42;99769.81;;;0.98;100.00
50123;BME280;36021;48.670;6.184;2023-02-28T01:45:27;99765.88;;;0.94;100.00
50123;BME280;36021;48.670;6.184;2023-02-28T01:47:55;99764.81;;;0.95;100.00
50123;BME280;36021;48.670;6.184;2023-02-28T01:50:23;99767.34;;;0.90;100.00
50123;BME280;36021;48.670;6.184;2023-02-28T01:52:50;99759.00;;;0.85;100.00
50123;BME280;36021;48.670;6.184;2023-02-28T01:55:23;99762.38;;;0.81;100.00
50123;BME280;36021;48.670;6.184;2023-02-28T01:57:55;99763.59;;;0.91;100.00
50123;BME280;36021;48.670;6.184;2023-02-28T02:00:22;99761.06;;;0.96;100.00
50123;BME280;36021;48.670;6.184;2023-02-28T02:02:49;99760.06;;;0.91;100.00
50123;BME280;36021;48.670;6.184;2023-02-28T02:05:23;99760.69;;;0.86;100.00
50123;BME280;36021;48.670;6.184;2023-02-28T02:07:50;99756.53;;;0.84;100.00
50123;BME280;36021;48.670;6.184;2023-02-28T02:10:21;99759.00;;;0.85;100.00
50123;BME280;36021;48.670;6.184;2023-02-28T02:35:40;99736.31;;;0.73;100.00
50123;BME280;36021;48.670;6.184;2023-02-28T03:17:06;99722.00;;;0.40;100.00
50123;BME280;36021;48.670;6.184;2023-02-28T03:22:17;99723.88;;;0.46;100.00
50123;BME280;36021;48.670;6.184;2023-02-28T03:27:24;99730.34;;;0.45;100.00
50123;BME280;36021;48.670;6.184;2023-02-28T03:32:33;99724.50;;;0.55;100.00
50123;BME280;36021;48.670;6.184;2023-02-28T03:37:25;99723.22;;;0.57;100.00
50123;BME280;36021;48.670;6.184;2023-02-28T03:39:54;99731.19;;;0.52;100.00
50123;BME280;36021;48.670;6.184;2023-02-28T03:42:22;99721.59;;;0.43;100.00
50123;BME280;36021;48.670;6.184;2023-02-28T03:47:22;99721.16;;;0.46;100.00
50123;BME280;36021;48.670;6.184;2023-02-28T03:49:50;99725.13;;;0.50;100.00
50123;BME280;36021;48.670;6.184;2023-02-28T03:52:18;99724.94;;;0.45;100.00
50123;BME280;36021;48.670;6.184;2023-02-28T03:54:48;99726.19;;;0.49;100.00
50123;BME280;36021;48.670;6.184;2023-02-28T04:00:10;99729.50;;;0.51;100.00
50123;BME280;36021;48.670;6.184;2023-02-28T04:02:40;99720.13;;;0.47;100.00
50123;BME280;36021;48.670;6.184;2023-02-28T04:05:06;99727.22;;;0.48;100.00
50123;BME280;36021;48.670;6.184;2023-02-28T04:07:33;99722.84;;;0.47;100.00
50123;BME280;36021;48.670;6.184;2023-02-28T04:09:59;99726.59;;;0.46;100.00
50123;BME280;36021;48.670;6.184;2023-02-28T04:12:25;99721.16;;;0.52;100.00
50123;BME280;36021;48.670;6.184;2023-02-28T04:14:50;99721.19;;;0.33;100.00
50123;BME280;36021;48.670;6.184;2023-02-28T04:17:16;99718.69;;;0.38;100.00
50123;BME280;36021;48.670;6.184;2023-02-28T04:19:42;99719.09;;;0.41;100.00
50123;BME280;36021;48.670;6.184;2023-02-28T04:22:08;99718.91;;;0.30;100.00
50123;BME280;36021;48.670;6.184;2023-02-28T04:24:34;99726.25;;;0.23;100.00
50123;BME280;36021;48.670;6.184;2023-02-28T04:27:00;99714.72;;;0.34;100.00
50123;BME280;36021;48.670;6.184;2023-02-28T04:29:30;99720.38;;;0.39;100.00
50123;BME280;36021;48.670;6.184;2023-02-28T04:31:57;99716.19;;;0.30;100.00
50123;BME280;36021;48.670;6.184;2023-02-28T04:34:24;99718.72;;;0.25;100.00
50123;BME280;36021;48.670;6.184;2023-02-28T04:36:50;99719.56;;;0.19;100.00
50123;BME280;36021;48.670;6.184;2023-02-28T04:39:20;99725.84;;;0.06;100.00
50123;BME280;36021;48.670;6.184;2023-02-28T04:41:47;99722.06;;;0.14;100.00
50123;BME280;36021;48.670;6.184;2023-02-28T04:44:13;99719.16;;;0.02;100.00
50123;BME280;36021;48.670;6.184;2023-02-28T04:46:38;99723.13;;;-0.01;100.00
50123;BME280;36021;48.670;6.184;2023-02-28T04:49:04;99731.25;;;0.13;100.00
50123;BME280;36021;48.670;6.184;2023-02-28T04:51:29;99723.72;;;0.21;100.00
50123;BME280;36021;48.670;6.184;2023-02-28T04:53:56;99730.84;;;0.16;100.00
50123;BME280;36021;48.670;6.184;2023-02-28T04:56:22;99741.25;;;0.19;100.00
50123;BME280;36021;48.670;6.184;2023-02-28T04:58:48;99735.59;;;0.27;100.00
50123;BME280;36021;48.670;6.184;2023-02-28T05:01:23;99734.75;;;0.26;100.00
50123;BME280;36021;48.670;6.184;2023-02-28T05:03:50;99740.00;;;0.21;100.00
50123;BME280;36021;48.670;6.184;2023-02-28T05:06:16;99737.91;;;0.17;100.00
50123;BME280;36021;48.670;6.184;2023-02-28T05:08:43;99738.75;;;-0.03;100.00
50123;BME280;36021;48.670;6.184;2023-02-28T05:11:23;99731.28;;;-0.01;100.00
50123;BME280;36021;48.670;6.184;2023-02-28T05:13:49;99734.41;;;-0.04;100.00
50123;BME280;36021;48.670;6.184;2023-02-28T05:16:16;99744.38;;;-0.24;100.00
50123;BME280;36021;48.670;6.184;2023-02-28T05:18:41;99748.13;;;-0.18;100.00
50123;BME280;36021;48.670;6.184;2023-02-28T05:23:52;99742.94;;;-0.07;100.00
50123;BME280;36021;48.670;6.184;2023-02-28T05:26:18;99742.94;;;-0.07;100.00
50123;BME280;36021;48.670;6.184;2023-02-28T05:28:43;99742.09;;;-0.14;100.00
50123;BME280;36021;48.670;6.184;2023-02-28T05:31:10;99750.44;;;-0.09;100.00
50123;BME280;36021;48.670;6.184;2023-02-28T05:33:36;99750.66;;;-0.17;100.00
50123;BME280;36021;48.670;6.184;2023-02-28T05:36:01;99756.06;;;-0.04;100.00
50123;BME280;36021;48.670;6.184;2023-02-28T05:38:27;99747.09;;;-0.04;100.00
50123;BME280;36021;48.670;6.184;2023-02-28T05:40:54;99757.72;;;-0.09;100.00
50123;BME280;36021;48.670;6.184;2023-02-28T05:43:19;99753.34;;;-0.04;100.00
50123;BME280;36021;48.670;6.184;2023-02-28T05:45:45;99745.22;;;-0.04;100.00
50123;BME280;36021;48.670;6.184;2023-02-28T05:48:11;99755.84;;;-0.15;100.00
50123;BME280;36021;48.670;6.184;2023-02-28T05:50:37;99755.84;;;-0.09;100.00
50123;BME280;36021;48.670;6.184;2023-02-28T05:53:03;99755.41;;;-0.19;100.00
50123;BME280;36021;48.670;6.184;2023-02-28T05:55:28;99762.94;;;-0.08;100.00
50123;BME280;36021;48.670;6.184;2023-02-28T05:57:54;99760.41;;;-0.16;100.00
50123;BME280;36021;48.670;6.184;2023-02-28T06:00:20;99763.78;;;-0.14;100.00
50123;BME280;36021;48.670;6.184;2023-02-28T06:02:46;99763.53;;;-0.19;100.00
50123;BME280;36021;48.670;6.184;2023-02-28T06:05:16;99764.78;;;-0.21;100.00
50123;BME280;36021;48.670;6.184;2023-02-28T06:07:42;99766.66;;;-0.22;100.00
50123;BME280;36021;48.670;6.184;2023-02-28T06:10:09;99770.81;;;-0.19;100.00
50123;BME280;36021;48.670;6.184;2023-02-28T06:12:35;99772.50;;;-0.25;100.00
50123;BME280;36021;48.670;6.184;2023-02-28T06:15:00;99778.16;;;-0.20;100.00
50123;BME280;36021;48.670;6.184;2023-02-28T06:17:26;99776.69;;;-0.03;100.00
50123;BME280;36021;48.670;6.184;2023-02-28T06:19:51;99777.09;;;-0.06;100.00
50123;BME280;36021;48.670;6.184;2023-02-28T06:22:17;99779.38;;;-0.03;100.00
50123;BME280;36021;48.670;6.184;2023-02-28T06:24:42;99785.03;;;0.03;100.00
50123;BME280;36021;48.670;6.184;2023-02-28T06:27:08;99791.06;;;0.05;100.00
50123;BME280;36021;48.670;6.184;2023-02-28T06:29:34;99794.19;;;0.02;100.00
50123;BME280;36021;48.670;6.184;2023-02-28T06:32:00;99792.09;;;0.04;100.00
50123;BME280;36021;48.670;6.184;2023-02-28T06:34:25;99795.88;;;0.03;100.00
50123;BME280;36021;48.670;6.184;2023-02-28T06:36:51;99800.63;;;0.00;100.00
50123;BME280;36021;48.670;6.184;2023-02-28T06:39:17;99800.88;;;0.19;100.00
50123;BME280;36021;48.670;6.184;2023-02-28T06:41:44;99801.72;;;0.13;100.00
50123;BME280;36021;48.670;6.184;2023-02-28T06:44:12;99805.22;;;0.13;100.00
50123;BME280;36021;48.670;6.184;2023-02-28T06:46:38;99804.19;;;0.14;100.00
50123;BME280;36021;48.670;6.184;2023-02-28T06:49:04;99806.91;;;0.21;100.00
50123;BME280;36021;48.670;6.184;2023-02-28T06:51:30;99810.03;;;0.18;100.00
50123;BME280;36021;48.670;6.184;2023-02-28T06:53:56;99804.19;;;0.27;100.00
50123;BME280;36021;48.670;6.184;2023-02-28T06:56:23;99806.06;;;0.27;100.00
50123;BME280;36021;48.670;6.184;2023-02-28T06:58:49;99814.00;;;0.22;100.00
50123;BME280;36021;48.670;6.184;2023-02-28T07:01:15;99817.13;;;0.25;100.00
50123;BME280;36021;48.670;6.184;2023-02-28T07:03:42;99817.53;;;0.29;100.00
50123;BME280;36021;48.670;6.184;2023-02-28T07:06:07;99811.72;;;0.32;100.00
50123;BME280;36021;48.670;6.184;2023-02-28T07:08:34;99812.13;;;0.29;100.00
50123;BME280;36021;48.670;6.184;2023-02-28T07:11:01;99815.25;;;0.32;100.00
50123;BME280;36021;48.670;6.184;2023-02-28T07:13:26;99816.91;;;0.33;100.00
50123;BME280;36021;48.670;6.184;2023-02-28T07:15:53;99816.06;;;0.26;100.00
50123;BME280;36021;48.670;6.184;2023-02-28T07:18:18;99820.44;;;0.34;100.00
50123;BME280;36021;48.670;6.184;2023-02-28T07:20:47;99822.75;;;0.37;100.00
50123;BME280;36021;48.670;6.184;2023-02-28T07:23:12;99821.28;;;0.41;100.00
50123;BME280;36021;48.670;6.184;2023-02-28T07:25:38;99813.34;;;0.46;100.00
50123;BME280;36021;48.670;6.184;2023-02-28T07:28:04;99812.53;;;0.39;100.00
50123;BME280;36021;48.670;6.184;2023-02-28T07:30:30;99815.84;;;0.54;100.00
50123;BME280;36021;48.670;6.184;2023-02-28T07:32:55;99823.38;;;0.52;100.00
50123;BME280;36021;48.670;6.184;2023-02-28T07:35:22;99819.38;;;0.61;100.00
50123;BME280;36021;48.670;6.184;2023-02-28T07:37:48;99813.72;;;0.63;100.00
50123;BME280;36021;48.670;6.184;2023-02-28T07:40:14;99814.16;;;0.66;100.00
50123;BME280;36021;48.670;6.184;2023-02-28T07:42:40;99818.09;;;0.77;100.00
50123;BME280;36021;48.670;6.184;2023-02-28T07:45:08;99822.47;;;0.84;100.00
50123;BME280;36021;48.670;6.184;2023-02-28T07:47:37;99824.53;;;0.89;100.00
50123;BME280;36021;48.670;6.184;2023-02-28T07:50:04;99816.16;;;1.03;100.00
50123;BME280;36021;48.670;6.184;2023-02-28T07:52:29;99815.28;;;1.10;100.00
50123;BME280;36021;48.670;6.184;2023-02-28T07:54:55;99812.72;;;1.21;100.00
50123;BME280;36021;48.670;6.184;2023-02-28T07:57:22;99809.75;;;1.36;100.00
50123;BME280;36021;48.670;6.184;2023-02-28T07:59:47;99811.00;;;1.40;100.00
50123;BME280;36021;48.670;6.184;2023-02-28T08:02:16;99808.03;;;1.41;100.00
50123;BME280;36021;48.670;6.184;2023-02-28T08:04:44;99803.59;;;1.60;100.00
50123;BME280;36021;48.670;6.184;2023-02-28T08:07:14;99801.44;;;1.69;100.00
50123;BME280;36021;48.670;6.184;2023-02-28T08:09:39;99798.31;;;1.65;100.00
50123;BME280;36021;48.670;6.184;2023-02-28T08:12:06;99803.22;;;1.81;100.00
50123;BME280;36021;48.670;6.184;2023-02-28T08:14:31;99795.13;;;2.49;100.00
50123;BME280;36021;48.670;6.184;2023-02-28T08:16:57;99801.09;;;2.82;100.00
50123;BME280;36021;48.670;6.184;2023-02-28T08:19:22;99803.47;;;2.54;100.00
50123;BME280;36021;48.670;6.184;2023-02-28T08:21:48;99804.56;;;2.28;100.00
50123;BME280;36021;48.670;6.184;2023-02-28T08:24:13;99805.59;;;2.02;100.00
50123;BME280;36021;48.670;6.184;2023-02-28T08:26:39;99802.34;;;1.87;100.00
50123;BME280;36021;48.670;6.184;2023-02-28T08:29:04;99807.53;;;2.20;100.00
50123;BME280;36021;48.670;6.184;2023-02-28T08:31:30;99800.66;;;3.03;100.00
50123;BME280;36021;48.670;6.184;2023-02-28T08:33:56;99796.59;;;5.30;100.00
50123;BME280;36021;48.670;6.184;2023-02-28T08:36:24;99789.47;;;7.62;100.00
50123;BME280;36021;48.670;6.184;2023-02-28T08:38:50;99793.59;;;9.18;100.00
50123;BME280;36021;48.670;6.184;2023-02-28T08:41:17;99792.31;;;10.84;93.78
50123;BME280;36021;48.670;6.184;2023-02-28T08:43:46;99777.25;;;12.77;75.97
50123;BME280;36021;48.670;6.184;2023-02-28T08:46:12;99773.88;;;13.14;61.12
50123;BME280;36021;48.670;6.184;2023-02-28T08:48:39;99777.13;;;14.06;60.80
50123;BME280;36021;48.670;6.184;2023-02-28T08:51:06;99777.56;;;15.29;51.00
50123;BME280;36021;48.670;6.184;2023-02-28T08:53:32;99781.63;;;15.63;49.35
50123;BME280;36021;48.670;6.184;2023-02-28T08:56:05;99778.03;;;15.49;44.04
50123;BME280;36021;48.670;6.184;2023-02-28T08:58:32;99775.53;;;15.21;45.42
50123;BME280;36021;48.670;6.184;2023-02-28T09:01:06;99777.03;;;15.13;44.26
50123;BME280;36021;48.670;6.184;2023-02-28T09:03:33;99787.28;;;14.99;47.92
50123;BME280;36021;48.670;6.184;2023-02-28T09:05:59;99784.94;;;13.62;51.94
50123;BME280;36021;48.670;6.184;2023-02-28T09:08:26;99791.25;;;13.20;57.62
50123;BME280;36021;48.670;6.184;2023-02-28T09:10:52;99788.69;;;12.66;61.84
50123;BME280;36021;48.670;6.184;2023-02-28T09:13:18;99796.22;;;12.21;62.40
50123;BME280;36021;48.670;6.184;2023-02-28T09:15:44;99791.50;;;10.68;81.45
50123;BME280;36021;48.670;6.184;2023-02-28T09:18:10;99793.44;;;10.27;89.26
50123;BME280;36021;48.670;6.184;2023-02-28T09:20:39;99796.72;;;8.26;99.72
50123;BME280;36021;48.670;6.184;2023-02-28T09:23:06;99798.53;;;7.41;100.00
50123;BME280;36021;48.670;6.184;2023-02-28T09:25:31;99796.09;;;6.84;100.00
50123;BME280;36021;48.670;6.184;2023-02-28T09:27:57;99807.66;;;6.36;100.00
50123;BME280;36021;48.670;6.184;2023-02-28T09:30:22;99795.94;;;6.07;100.00
50123;BME280;36021;48.670;6.184;2023-02-28T09:32:48;99798.28;;;5.99;100.00
50123;BME280;36021;48.670;6.184;2023-02-28T09:35:17;99809.03;;;5.49;100.00
50123;BME280;36021;48.670;6.184;2023-02-28T09:37:44;99804.31;;;5.33;100.00
50123;BME280;36021;48.670;6.184;2023-02-28T09:40:09;99809.13;;;5.02;100.00
50123;BME280;36021;48.670;6.184;2023-02-28T09:42:36;99805.34;;;4.80;100.00
50123;BME280;36021;48.670;6.184;2023-02-28T09:45:05;99794.44;;;4.57;100.00
50123;BME280;36021;48.670;6.184;2023-02-28T09:47:39;99804.00;;;4.36;100.00
50123;BME280;36021;48.670;6.184;2023-02-28T09:50:49;99802.47;;;4.29;100.00
50123;BME280;36021;48.670;6.184;2023-02-28T09:52:55;99801.13;;;4.08;100.00
50123;BME280;36021;48.670;6.184;2023-02-28T09:55:42;99795.41;;;4.09;100.00
50123;BME280;36021;48.670;6.184;2023-02-28T09:58:15;99802.59;;;4.22;100.00
50123;BME280;36021;48.670;6.184;2023-02-28T10:00:43;99800.88;;;3.68;100.00
50123;BME280;36021;48.670;6.184;2023-02-28T10:03:20;99804.25;;;3.52;100.00
50123;BME280;36021;48.670;6.184;2023-02-28T10:08:22;99802.81;;;3.79;100.00
50123;BME280;36021;48.670;6.184;2023-02-28T10:11:02;99795.91;;;3.77;100.00
50123;BME280;36021;48.670;6.184;2023-02-28T10:16:06;99808.34;;;4.02;100.00
50123;BME280;36021;48.670;6.184;2023-02-28T10:21:15;99807.72;;;3.59;100.00
50123;BME280;36021;48.670;6.184;2023-02-28T10:23:43;99803.91;;;3.60;100.00
50123;BME280;36021;48.670;6.184;2023-02-28T10:26:13;99803.09;;;3.89;100.00
50123;BME280;36021;48.670;6.184;2023-02-28T10:28:41;99810.66;;;3.87;100.00
50123;BME280;36021;48.670;6.184;2023-02-28T10:31:09;99800.31;;;3.78;100.00
50123;BME280;36021;48.670;6.184;2023-02-28T10:33:37;99801.22;;;4.01;100.00
50123;BME280;36021;48.670;6.184;2023-02-28T10:36:03;99794.50;;;4.15;100.00
50123;BME280;36021;48.670;6.184;2023-02-28T10:38:33;99801.97;;;4.08;100.00
50123;BME280;36021;48.670;6.184;2023-02-28T10:41:06;99800.81;;;3.86;100.00
50123;BME280;36021;48.670;6.184;2023-02-28T10:43:32;99805.47;;;3.97;100.00
50123;BME280;36021;48.670;6.184;2023-02-28T10:46:05;99805.09;;;3.94;100.00
50123;BME280;36021;48.670;6.184;2023-02-28T10:48:38;99802.94;;;3.84;100.00
50123;BME280;36021;48.670;6.184;2023-02-28T10:51:05;99800.69;;;3.81;100.00
50123;BME280;36021;48.670;6.184;2023-02-28T10:53:33;99806.50;;;3.85;100.00
50123;BME280;36021;48.670;6.184;2023-02-28T10:58:34;99808.66;;;3.94;100.00
50123;BME280;36021;48.670;6.184;2023-02-28T11:01:12;99802.00;;;3.90;100.00
50123;BME280;36021;48.670;6.184;2023-02-28T11:03:38;99810.09;;;3.67;100.00
50123;BME280;36021;48.670;6.184;2023-02-28T11:06:12;99808.19;;;3.56;100.00
50123;BME280;36021;48.670;6.184;2023-02-28T11:09:14;99809.63;;;3.70;100.00
50123;BME280;36021;48.670;6.184;2023-02-28T11:11:31;99811.56;;;3.70;100.00
50123;BME280;36021;48.670;6.184;2023-02-28T11:14:06;99805.72;;;3.66;100.00
50123;BME280;36021;48.670;6.184;2023-02-28T11:16:42;99799.81;;;3.69;100.00
50123;BME280;36021;48.670;6.184;2023-02-28T11:19:15;99804.38;;;3.57;100.00
50123;BME280;36021;48.670;6.184;2023-02-28T11:21:45;99798.91;;;3.57;100.00
50123;BME280;36021;48.670;6.184;2023-02-28T11:24:21;99798.72;;;3.70;100.00
50123;BME280;36021;48.670;6.184;2023-02-28T11:26:48;99799.25;;;3.79;100.00
50123;BME280;36021;48.670;6.184;2023-02-28T11:29:30;99802.09;;;3.72;100.00
50123;BME280;36021;48.670;6.184;2023-02-28T11:32:09;99798.59;;;3.65;100.00
50123;BME280;36021;48.670;6.184;2023-02-28T11:34:37;99792.47;;;3.70;100.00
50123;BME280;36021;48.670;6.184;2023-02-28T11:37:03;99793.16;;;3.65;100.00
50123;BME280;36021;48.670;6.184;2023-02-28T11:39:32;99796.72;;;3.65;100.00
50123;BME280;36021;48.670;6.184;2023-02-28T11:47:15;99796.72;;;3.65;100.00
50123;BME280;36021;48.670;6.184;2023-02-28T11:49:49;99798.63;;;3.47;100.00
50123;BME280;36021;48.670;6.184;2023-02-28T11:52:29;99803.56;;;3.56;100.00
50123;BME280;36021;48.670;6.184;2023-02-28T12:05:46;99798.84;;;3.34;100.00
50123;BME280;36021;48.670;6.184;2023-02-28T12:11:04;99794.69;;;3.13;100.00
50123;BME280;36021;48.670;6.184;2023-02-28T12:13:42;99792.88;;;3.07;100.00
50123;BME280;36021;48.670;6.184;2023-02-28T12:26:40;99787.66;;;3.24;100.00
50123;BME280;36021;48.670;6.184;2023-02-28T12:31:38;99791.41;;;3.23;100.00
50123;BME280;36021;48.670;6.184;2023-02-28T12:34:07;99788.53;;;3.36;100.00
50123;BME280;36021;48.670;6.184;2023-02-28T12:36:35;99784.13;;;3.35;100.00
50123;BME280;36021;48.670;6.184;2023-02-28T12:41:39;99791.38;;;3.59;100.00
50123;BME280;36021;48.670;6.184;2023-02-28T12:44:09;99792.00;;;3.73;100.00
50123;BME280;36021;48.670;6.184;2023-02-28T12:46:39;99789.88;;;3.45;100.00
50123;BME280;36021;48.670;6.184;2023-02-28T12:49:15;99785.25;;;3.45;100.00
50123;BME280;36021;48.670;6.184;2023-02-28T12:51:41;99779.34;;;3.48;100.00
50123;BME280;36021;48.670;6.184;2023-02-28T12:56:42;99775.97;;;3.35;100.00
50123;BME280;36021;48.670;6.184;2023-02-28T12:59:53;99780.34;;;3.36;100.00
50123;BME280;36021;48.670;6.184;2023-02-28T13:09:38;99786.19;;;3.21;100.00
50123;BME280;36021;48.670;6.184;2023-02-28T13:12:14;99790.03;;;3.32;100.00
50123;BME280;36021;48.670;6.184;2023-02-28T13:14:41;99779.00;;;3.27;100.00
50123;BME280;36021;48.670;6.184;2023-02-28T13:25:01;99785.81;;;3.36;100.00
50123;BME280;36021;48.670;6.184;2023-02-28T13:27:38;99788.75;;;3.34;100.00
50123;BME280;36021;48.670;6.184;2023-02-28T13:33:16;99781.94;;;3.43;100.00
50123;BME280;36021;48.670;6.184;2023-02-28T13:35:37;99775.31;;;3.51;100.00
50123;BME280;36021;48.670;6.184;2023-02-28T13:38:12;99774.72;;;3.49;100.00
50123;BME280;36021;48.670;6.184;2023-02-28T13:40:40;99779.84;;;3.57;100.00
50123;BME280;36021;48.670;6.184;2023-02-28T13:43:07;99776.03;;;3.46;100.00
50123;BME280;36021;48.670;6.184;2023-02-28T13:45:33;99780.00;;;3.62;100.00
50123;BME280;36021;48.670;6.184;2023-02-28T13:48:04;99785.06;;;3.58;100.00
50123;BME280;36021;48.670;6.184;2023-02-28T13:50:32;99786.84;;;3.53;100.00
50123;BME280;36021;48.670;6.184;2023-02-28T13:55:43;99783.41;;;3.57;100.00
50123;BME280;36021;48.670;6.184;2023-02-28T14:03:45;99781.91;;;3.73;100.00
50123;BME280;36021;48.670;6.184;2023-02-28T14:09:00;99778.56;;;3.89;100.00
50123;BME280;36021;48.670;6.184;2023-02-28T14:11:35;99790.16;;;3.85;100.00
50123;BME280;36021;48.670;6.184;2023-02-28T14:14:02;99788.84;;;3.87;100.00
50123;BME280;36021;48.670;6.184;2023-02-28T14:16:35;99792.53;;;3.93;100.00
50123;BME280;36021;48.670;6.184;2023-02-28T14:19:03;99779.63;;;4.00;100.00
50123;BME280;36021;48.670;6.184;2023-02-28T14:21:31;99773.50;;;4.04;100.00
50123;BME280;36021;48.670;6.184;2023-02-28T14:29:24;99781.47;;;4.29;100.00
50123;BME280;36021;48.670;6.184;2023-02-28T14:36:49;99782.44;;;4.58;100.00
50123;BME280;36021;48.670;6.184;2023-02-28T14:39:20;99789.44;;;4.77;100.00
50123;BME280;36021;48.670;6.184;2023-02-28T14:41:47;99787.41;;;4.84;100.00
50123;BME280;36021;48.670;6.184;2023-02-28T14:44:16;99786.56;;;4.95;100.00
50123;BME280;36021;48.670;6.184;2023-02-28T14:46:43;99785.38;;;4.91;100.00
50123;BME280;36021;48.670;6.184;2023-02-28T14:49:13;99794.28;;;4.75;100.00
50123;BME280;36021;48.670;6.184;2023-02-28T14:51:41;99788.59;;;4.65;100.00
50123;BME280;36021;48.670;6.184;2023-02-28T14:54:12;99789.78;;;4.69;100.00
50123;BME280;36021;48.670;6.184;2023-02-28T14:56:39;99788.25;;;4.73;100.00
50123;BME280;36021;48.670;6.184;2023-02-28T14:59:18;99780.63;;;4.52;100.00
50123;BME280;36021;48.670;6.184;2023-02-28T15:01:48;99765.56;;;4.49;100.00
50123;BME280;36021;48.670;6.184;2023-02-28T15:04:18;99768.53;;;4.36;100.00
50123;BME280;36021;48.670;6.184;2023-02-28T15:06:46;99766.66;;;4.37;100.00
50123;BME280;36021;48.670;6.184;2023-02-28T15:09:14;99760.81;;;4.33;100.00
50123;BME280;36021;48.670;6.184;2023-02-28T15:11:40;99758.81;;;4.29;100.00
50123;BME280;36021;48.670;6.184;2023-02-28T15:14:07;99765.69;;;4.31;100.00
50123;BME280;36021;48.670;6.184;2023-02-28T15:16:42;99767.47;;;4.37;100.00
50123;BME280;36021;48.670;6.184;2023-02-28T15:19:26;99765.91;;;4.30;100.00
50123;BME280;36021;48.670;6.184;2023-02-28T15:22:02;99775.63;;;4.26;100.00
50123;BME280;36021;48.670;6.184;2023-02-28T15:24:31;99757.16;;;4.28;100.00
50123;BME280;36021;48.670;6.184;2023-02-28T15:27:02;99761.19;;;4.37;100.00
50123;BME280;36021;48.670;6.184;2023-02-28T15:29:41;99767.59;;;4.31;100.00
50123;BME280;36021;48.670;6.184;2023-02-28T15:32:16;99773.88;;;4.43;100.00
50123;BME280;36021;48.670;6.184;2023-02-28T15:34:45;99769.25;;;4.43;100.00
50123;BME280;36021;48.670;6.184;2023-02-28T15:37:27;99773.53;;;4.51;100.00
50123;BME280;36021;48.670;6.184;2023-02-28T15:39:55;99764.38;;;4.45;100.00
50123;BME280;36021;48.670;6.184;2023-02-28T15:42:23;99774.59;;;4.50;100.00
50123;BME280;36021;48.670;6.184;2023-02-28T15:44:52;99765.47;;;4.56;100.00
50123;BME280;36021;48.670;6.184;2023-02-28T15:47:19;99776.38;;;4.56;100.00
50123;BME280;36021;48.670;6.184;2023-02-28T15:49:45;99763.69;;;4.73;100.00
50123;BME280;36021;48.670;6.184;2023-02-28T15:52:12;99769.00;;;4.91;100.00